createdAt,value
2023-05-05T00:02:10.382Z,2.23
2023-05-05T00:04:38.110Z,2.03
2023-05-05T00:07:05.435Z,2.80
2023-05-05T00:09:32.702Z,2.40
2023-05-05T00:12:00.290Z,3.07
2023-05-05T00:14:27.575Z,2.93
2023-05-05T00:16:54.938Z,3.43
2023-05-05T00:19:22.278Z,3.73
2023-05-05T00:21:49.614Z,3.20
2023-05-05T00:24:16.894Z,3.50
2023-05-05T00:26:44.344Z,2.93
2023-05-05T00:29:11.878Z,2.80
2023-05-05T00:31:39.335Z,3.10
2023-05-05T00:34:06.905Z,3.20
2023-05-05T00:36:34.367Z,2.77
2023-05-05T00:39:01.769Z,2.77
2023-05-05T00:41:29.574Z,2.27
2023-05-05T00:43:56.933Z,2.40
2023-05-05T00:46:26.263Z,2.30
2023-05-05T00:48:54.069Z,2.30
2023-05-05T00:51:22.575Z,2.17
2023-05-05T00:53:50.268Z,1.87
2023-05-05T00:56:18.479Z,2.40
2023-05-05T00:58:46.320Z,2.00
2023-05-05T01:01:14.587Z,2.30
2023-05-05T01:03:42.222Z,2.10
2023-05-05T01:06:15.607Z,2.30
2023-05-05T01:08:42.889Z,1.77
2023-05-05T01:11:18.292Z,1.97
2023-05-05T01:14:04.464Z,2.07
2023-05-05T01:16:33.550Z,2.17
2023-05-05T01:19:25.618Z,2.17
2023-05-05T01:21:56.237Z,2.00
2023-05-05T01:24:34.444Z,1.73
2023-05-05T01:27:17.354Z,1.57
2023-05-05T01:29:58.848Z,1.60
2023-05-05T01:32:27.080Z,1.80
2023-05-05T01:35:01.272Z,1.83
2023-05-05T01:37:49.716Z,1.40
2023-05-05T01:40:20.774Z,1.53
2023-05-05T01:42:48.537Z,1.60
2023-05-05T01:45:16.515Z,1.40
2023-05-05T01:47:44.445Z,1.70
2023-05-05T01:50:12.696Z,1.60
2023-05-05T01:52:40.767Z,1.50
2023-05-05T01:55:08.960Z,2.10
2023-05-05T01:57:36.798Z,1.40
2023-05-05T02:00:04.571Z,1.67
2023-05-05T02:02:43.595Z,1.50
2023-05-05T02:05:11.150Z,1.47
2023-05-05T02:07:38.794Z,1.43
2023-05-05T02:10:07.693Z,1.30
2023-05-05T02:12:38.172Z,1.30
2023-05-05T02:15:06.032Z,1.37
2023-05-05T02:17:33.524Z,1.50
2023-05-05T02:20:02.789Z,1.40
2023-05-05T02:22:31.692Z,1.30
2023-05-05T02:24:59.415Z,1.30
2023-05-05T02:27:27.644Z,1.30
2023-05-05T02:29:59.359Z,1.43
2023-05-05T02:32:32.942Z,1.30
2023-05-05T02:35:12.894Z,1.40
2023-05-05T02:37:45.065Z,1.30
2023-05-05T02:40:14.567Z,1.10
2023-05-05T02:42:43.891Z,1.17
2023-05-05T02:45:20.873Z,1.17
2023-05-05T02:47:50.405Z,1.23
2023-05-05T02:50:18.754Z,1.40
2023-05-05T02:52:58.106Z,1.20
2023-05-05T02:55:27.599Z,1.30
2023-05-05T02:58:01.190Z,1.20
2023-05-05T03:00:32.394Z,1.40
2023-05-05T03:03:07.231Z,1.33
2023-05-05T03:05:38.365Z,1.13
2023-05-05T03:08:11.582Z,1.40
2023-05-05T03:10:42.868Z,1.50
2023-05-05T03:13:11.160Z,1.47
2023-05-05T03:15:48.386Z,1.40
2023-05-05T03:18:18.950Z,1.97
2023-05-05T03:20:52.066Z,1.20
2023-05-05T03:23:22.970Z,1.30
2023-05-05T03:25:55.588Z,1.50
2023-05-05T03:28:30.137Z,1.80
2023-05-05T03:31:00.737Z,1.70
2023-05-05T03:33:28.456Z,1.73
2023-05-05T03:35:59.104Z,1.80
2023-05-05T03:38:26.714Z,1.60
2023-05-05T03:40:54.922Z,1.50
2023-05-05T03:43:25.322Z,1.90
2023-05-05T03:45:52.963Z,1.50
2023-05-05T03:48:20.556Z,1.53
2023-05-05T03:50:49.503Z,1.90
2023-05-05T03:53:18.743Z,1.60
2023-05-05T03:55:46.245Z,2.10
2023-05-05T03:58:13.690Z,1.57
2023-05-05T04:00:41.021Z,1.60
2023-05-05T04:03:09.351Z,1.90
2023-05-05T04:05:37.061Z,1.83
2023-05-05T04:08:05.397Z,1.80
2023-05-05T04:10:32.847Z,1.73
2023-05-05T04:13:01.371Z,2.00
2023-05-05T04:15:30.988Z,1.87
2023-05-05T04:17:58.709Z,2.10
2023-05-05T04:20:26.974Z,2.50
2023-05-05T04:22:55.531Z,2.63
2023-05-05T04:25:23.799Z,2.37
2023-05-05T04:27:51.546Z,3.40
2023-05-05T04:30:19.630Z,2.60
2023-05-05T04:32:47.040Z,3.10
2023-05-05T04:35:15.009Z,2.80
2023-05-05T04:37:43.325Z,5.00
2023-05-05T04:40:10.945Z,3.20
2023-05-05T04:42:39.511Z,3.43
2023-05-05T04:45:09.272Z,3.47
2023-05-05T04:47:40.747Z,3.23
2023-05-05T04:50:09.033Z,3.03
2023-05-05T04:52:36.784Z,3.87
2023-05-05T04:55:04.743Z,3.47
2023-05-05T04:57:33.643Z,3.33
2023-05-05T05:00:01.528Z,3.57
2023-05-05T05:02:29.283Z,3.03
2023-05-05T05:04:56.838Z,3.63
2023-05-05T05:07:24.277Z,3.17
2023-05-05T05:09:52.154Z,3.37
2023-05-05T05:12:19.490Z,3.30
2023-05-05T05:14:46.917Z,3.43
2023-05-05T05:17:14.553Z,3.90
2023-05-05T05:19:42.362Z,3.73
2023-05-05T05:22:09.832Z,3.13
2023-05-05T05:24:40.123Z,3.20
2023-05-05T05:27:10.180Z,3.90
2023-05-05T05:29:39.141Z,3.30
2023-05-05T05:32:06.818Z,3.30
2023-05-05T05:34:34.798Z,5.68
2023-05-05T05:37:03.080Z,3.67
2023-05-05T05:39:31.902Z,3.67
2023-05-05T05:42:01.715Z,3.53
2023-05-05T05:44:29.470Z,3.50
2023-05-05T05:46:57.324Z,3.80
2023-05-05T05:49:27.942Z,3.80
2023-05-05T05:51:55.912Z,3.90
2023-05-05T05:54:23.771Z,3.53
2023-05-05T05:56:51.709Z,3.07
2023-05-05T05:59:19.158Z,3.90
2023-05-05T06:01:46.515Z,4.53
2023-05-05T06:04:13.988Z,4.13
2023-05-05T06:06:41.757Z,3.30
2023-05-05T06:09:09.288Z,3.60
2023-05-05T06:11:37.236Z,3.47
2023-05-05T06:14:04.804Z,3.57
2023-05-05T06:16:32.264Z,3.23
2023-05-05T06:19:05.620Z,3.70
2023-05-05T06:21:33.330Z,3.03
2023-05-05T06:24:00.860Z,3.20
2023-05-05T06:26:28.460Z,3.27
2023-05-05T06:28:56.032Z,3.13
2023-05-05T06:31:23.459Z,3.47
2023-05-05T06:33:51.007Z,2.40
2023-05-05T06:36:18.625Z,2.20
2023-05-05T06:38:46.507Z,2.60
2023-05-05T06:41:19.784Z,2.90
2023-05-05T06:43:47.444Z,2.30
2023-05-05T06:46:15.482Z,1.87
2023-05-05T06:48:42.818Z,2.00
2023-05-05T06:51:10.451Z,2.03
2023-05-05T06:53:37.776Z,1.90
2023-05-05T06:56:05.398Z,2.00
2023-05-05T06:58:32.803Z,1.80
2023-05-05T07:01:00.165Z,1.77
2023-05-05T07:03:28.404Z,2.00
2023-05-05T07:05:55.926Z,1.73
2023-05-05T07:08:23.303Z,2.07
2023-05-05T07:10:51.127Z,2.13
2023-05-05T07:13:18.554Z,2.03
2023-05-05T07:15:46.671Z,1.70
2023-05-05T07:18:14.635Z,1.80
2023-05-05T07:20:42.003Z,1.63
2023-05-05T07:23:09.898Z,1.93
2023-05-05T07:25:37.787Z,1.73
2023-05-05T07:28:05.440Z,1.60
2023-05-05T07:30:32.943Z,1.57
2023-05-05T07:33:00.507Z,1.60
2023-05-05T07:35:29.320Z,1.53
2023-05-05T07:37:56.723Z,1.70
2023-05-05T07:40:24.180Z,1.40
2023-05-05T07:42:51.854Z,1.80
2023-05-05T07:45:19.356Z,1.30
2023-05-05T07:47:46.717Z,1.37
2023-05-05T07:50:14.141Z,1.60
2023-05-05T07:52:46.727Z,1.43
2023-05-05T07:55:19.132Z,1.77
2023-05-05T07:57:46.658Z,1.27
2023-05-05T08:00:14.366Z,1.33
2023-05-05T08:02:41.990Z,1.50
2023-05-05T08:05:12.190Z,1.27
2023-05-05T08:07:41.675Z,1.50
2023-05-05T08:10:12.580Z,1.10
2023-05-05T08:12:40.582Z,1.30
2023-05-05T08:15:08.636Z,1.37
2023-05-05T08:17:46.926Z,1.20
2023-05-05T08:20:14.369Z,1.37
2023-05-05T08:22:42.755Z,1.30
2023-05-05T08:25:11.181Z,1.30
2023-05-05T08:27:39.295Z,1.47
2023-05-05T08:30:07.015Z,1.20
2023-05-05T08:32:34.421Z,1.33
2023-05-05T08:35:03.314Z,0.90
2023-05-05T08:37:30.941Z,1.20
2023-05-05T08:39:58.463Z,1.30
2023-05-05T08:42:36.084Z,1.47
2023-05-05T08:45:04.296Z,1.27
2023-05-05T08:47:32.322Z,1.00
2023-05-05T08:49:59.877Z,0.97
2023-05-05T08:52:29.717Z,1.07
2023-05-05T08:55:09.771Z,1.23
2023-05-05T08:57:46.997Z,1.30
2023-05-05T09:00:14.656Z,1.00
2023-05-05T09:02:43.475Z,1.00
2023-05-05T09:05:11.343Z,1.07
2023-05-05T09:07:43.721Z,1.13
2023-05-05T09:10:11.840Z,1.10
2023-05-05T09:12:42.900Z,1.13
2023-05-05T09:15:11.606Z,1.13
2023-05-05T09:17:39.580Z,1.10
2023-05-05T09:20:10.963Z,1.10
2023-05-05T09:22:39.715Z,0.90
2023-05-05T09:25:08.057Z,1.10
2023-05-05T09:27:39.561Z,1.23
2023-05-05T09:30:07.351Z,1.00
2023-05-05T09:32:48.908Z,1.00
2023-05-05T09:35:17.381Z,0.90
2023-05-05T09:37:45.484Z,1.10
2023-05-05T09:40:16.679Z,1.00
2023-05-05T09:42:44.912Z,1.00
2023-05-05T09:45:18.694Z,1.03
2023-05-05T09:47:49.876Z,1.00
2023-05-05T09:50:21.592Z,1.10
2023-05-05T09:52:56.085Z,1.10
2023-05-05T09:55:24.492Z,0.90
2023-05-05T09:57:52.199Z,1.00
2023-05-05T10:00:20.016Z,1.07
2023-05-05T10:02:47.501Z,0.97
2023-05-05T10:05:18.855Z,0.90
2023-05-05T10:07:47.559Z,1.10
2023-05-05T10:10:16.376Z,0.90
2023-05-05T10:12:44.168Z,1.00
2023-05-05T10:15:12.179Z,0.90
2023-05-05T10:20:20.609Z,1.13
2023-05-05T10:22:55.066Z,1.20
2023-05-05T10:25:27.136Z,1.23
2023-05-05T10:27:56.592Z,0.90
2023-05-05T10:30:25.088Z,0.97
2023-05-05T10:33:05.089Z,1.00
2023-05-05T10:35:42.600Z,1.20
2023-05-05T10:38:09.953Z,1.03
2023-05-05T10:40:37.418Z,1.00
2023-05-05T10:43:04.852Z,0.90
2023-05-05T10:45:32.474Z,1.03
2023-05-05T10:48:01.432Z,1.03
2023-05-05T10:50:38.160Z,1.10
2023-05-05T10:53:24.255Z,1.00
2023-05-05T10:55:55.094Z,1.00
2023-05-05T10:58:51.252Z,1.20
2023-05-05T11:01:31.138Z,1.00
2023-05-05T11:04:17.506Z,0.90
2023-05-05T11:07:03.731Z,1.00
2023-05-05T11:09:31.395Z,1.10
2023-05-05T11:12:02.898Z,0.90
2023-05-05T11:14:30.400Z,1.00
2023-05-05T11:16:57.763Z,0.93
2023-05-05T11:19:43.727Z,0.90
2023-05-05T11:22:11.519Z,1.07
2023-05-05T11:24:42.287Z,1.30
2023-05-05T11:27:10.805Z,1.07
2023-05-05T11:29:57.161Z,0.90
2023-05-05T11:32:25.266Z,1.03
2023-05-05T11:34:52.715Z,1.10
2023-05-05T11:37:23.238Z,1.20
2023-05-05T11:39:53.694Z,1.00
2023-05-05T11:42:24.693Z,1.27
2023-05-05T11:44:52.371Z,1.00
2023-05-05T11:47:19.673Z,1.10
2023-05-05T11:49:47.234Z,1.10
2023-05-05T11:52:14.943Z,0.90
2023-05-05T11:54:50.889Z,1.20
2023-05-05T11:57:21.690Z,1.10
2023-05-05T12:00:01.497Z,0.97
2023-05-05T12:02:33.746Z,1.00
2023-05-05T12:05:01.902Z,1.00
2023-05-05T12:07:30.580Z,1.00
2023-05-05T12:09:58.430Z,1.10
2023-05-05T12:12:40.077Z,1.10
2023-05-05T12:15:08.146Z,1.10
2023-05-05T12:17:37.893Z,0.90
2023-05-05T12:20:05.575Z,1.00
2023-05-05T12:22:33.008Z,1.20
2023-05-05T12:25:04.836Z,1.13
2023-05-05T12:27:32.339Z,1.20
2023-05-05T12:30:11.853Z,1.30
2023-05-05T12:32:40.102Z,1.10
2023-05-05T12:35:08.832Z,1.20
2023-05-05T12:37:36.531Z,1.00
2023-05-05T12:40:06.344Z,1.30
2023-05-05T12:42:39.000Z,1.47
2023-05-05T12:45:08.378Z,1.00
2023-05-05T12:47:36.847Z,1.23
2023-05-05T12:50:04.554Z,1.00
2023-05-05T12:52:52.166Z,1.40
2023-05-05T12:55:20.065Z,1.10
2023-05-05T12:58:04.678Z,1.10
2023-05-05T13:00:32.378Z,1.10
2023-05-05T13:03:03.840Z,1.27
2023-05-05T13:05:32.864Z,1.20
2023-05-05T13:08:00.516Z,1.10
2023-05-05T13:10:31.456Z,1.37
2023-05-05T13:12:59.407Z,0.90
2023-05-05T13:15:27.641Z,1.17
2023-05-05T13:18:02.540Z,1.20
2023-05-05T13:20:30.253Z,1.27
2023-05-05T13:22:57.739Z,1.55
2023-05-05T13:25:25.087Z,1.40
2023-05-05T13:27:52.610Z,1.37
2023-05-05T13:30:20.768Z,1.50
2023-05-05T13:32:48.270Z,1.43
2023-05-05T13:35:18.628Z,1.17
2023-05-05T13:37:47.513Z,1.30
2023-05-05T13:40:15.507Z,1.27
2023-05-05T13:42:46.176Z,1.10
2023-05-05T13:45:14.244Z,1.17
2023-05-05T13:47:42.994Z,1.10
2023-05-05T13:50:10.626Z,1.30
2023-05-05T13:52:38.673Z,1.10
2023-05-05T13:55:06.660Z,1.23
2023-05-05T13:57:34.220Z,1.20
2023-05-05T14:00:01.733Z,1.30
2023-05-05T14:02:29.375Z,1.20
2023-05-05T14:04:56.875Z,1.23
2023-05-05T14:07:24.514Z,1.10
2023-05-05T14:09:51.900Z,1.20
2023-05-05T14:12:19.266Z,1.20
2023-05-05T14:14:49.494Z,1.10
2023-05-05T14:17:17.018Z,1.10
2023-05-05T14:19:44.625Z,1.60
2023-05-05T14:22:11.936Z,1.00
2023-05-05T14:24:39.345Z,1.30
2023-05-05T14:27:06.732Z,1.30
2023-05-05T14:29:34.062Z,1.20
2023-05-05T14:32:01.586Z,1.20
2023-05-05T14:34:29.189Z,1.57
2023-05-05T14:36:57.234Z,1.30
2023-05-05T14:39:24.648Z,1.30
2023-05-05T14:41:52.159Z,1.30
2023-05-05T14:44:19.733Z,1.40
2023-05-05T14:46:48.539Z,1.20
2023-05-05T14:49:17.015Z,1.40
2023-05-05T14:51:44.388Z,1.50
2023-05-05T14:54:24.175Z,1.70
2023-05-05T14:56:55.339Z,1.40
2023-05-05T14:59:22.742Z,1.50
2023-05-05T15:01:50.089Z,1.43
2023-05-05T15:04:17.458Z,1.50
2023-05-05T15:06:44.828Z,1.30
2023-05-05T15:09:13.074Z,1.40
2023-05-05T15:11:45.235Z,1.17
2023-05-05T15:14:12.653Z,1.23
2023-05-05T15:16:40.380Z,1.50
2023-05-05T15:19:07.779Z,1.40
2023-05-05T15:21:35.122Z,1.40
2023-05-05T15:24:02.523Z,1.53
2023-05-05T15:26:29.871Z,1.57
2023-05-05T15:28:57.296Z,1.43
2023-05-05T15:31:24.686Z,1.40
2023-05-05T15:33:52.313Z,2.00
2023-05-05T15:36:22.596Z,1.33
2023-05-05T15:38:50.196Z,1.37
2023-05-05T15:41:17.750Z,1.63
2023-05-05T15:43:45.028Z,1.77
2023-05-05T15:46:12.360Z,1.40
2023-05-05T15:48:39.672Z,1.70
2023-05-05T15:51:07.026Z,2.07
2023-05-05T15:53:34.958Z,2.37
2023-05-05T15:56:03.474Z,1.80
2023-05-05T15:58:30.995Z,1.67
2023-05-05T16:00:58.560Z,2.10
2023-05-05T16:03:26.148Z,1.77
2023-05-05T16:05:53.516Z,1.60
2023-05-05T16:08:21.049Z,1.60
2023-05-05T16:10:48.393Z,2.03
2023-05-05T16:13:16.154Z,2.20
2023-05-05T16:15:43.686Z,1.87
2023-05-05T16:18:11.219Z,1.60
2023-05-05T16:20:38.630Z,1.73
2023-05-05T16:23:06.014Z,1.90
2023-05-05T16:25:33.376Z,2.10
2023-05-05T16:28:01.712Z,1.90
2023-05-05T16:30:29.358Z,1.97
2023-05-05T16:32:56.837Z,1.90
2023-05-05T16:35:24.183Z,2.13
2023-05-05T16:37:52.537Z,2.10
2023-05-05T16:40:19.866Z,1.80
2023-05-05T16:42:47.247Z,1.77
2023-05-05T16:45:14.622Z,2.50
2023-05-05T16:47:42.044Z,1.80
2023-05-05T16:50:09.784Z,1.87
2023-05-05T16:52:37.195Z,2.40
2023-05-05T16:55:04.881Z,1.83
2023-05-05T16:57:32.523Z,2.03
2023-05-05T16:59:59.902Z,3.00
2023-05-05T17:02:27.489Z,2.23
2023-05-05T17:04:54.946Z,2.30
2023-05-05T17:07:22.356Z,2.07
2023-05-05T17:09:49.799Z,2.20
2023-05-05T17:12:17.134Z,2.10
2023-05-05T17:14:45.445Z,2.27
2023-05-05T17:17:13.139Z,2.53
2023-05-05T17:19:40.649Z,2.87
2023-05-05T17:22:08.133Z,3.60
2023-05-05T17:24:35.743Z,2.50
2023-05-05T17:27:03.274Z,2.70
2023-05-05T17:29:30.748Z,2.60
2023-05-05T17:31:58.174Z,2.43
2023-05-05T17:34:25.769Z,3.13
2023-05-05T17:36:53.153Z,14.13
2023-05-05T17:39:20.772Z,4.57
2023-05-05T17:41:49.515Z,3.80
2023-05-05T17:44:16.981Z,8.43
2023-05-05T17:46:44.312Z,4.63
2023-05-05T17:49:11.666Z,5.10
2023-05-05T17:51:38.966Z,4.80
2023-05-05T17:54:06.302Z,4.63
2023-05-05T17:56:34.777Z,3.93
2023-05-05T17:59:02.354Z,4.30
2023-05-05T18:01:29.855Z,3.90
2023-05-05T18:03:57.425Z,3.73
2023-05-05T18:06:24.753Z,3.70
2023-05-05T18:08:52.298Z,3.40
2023-05-05T18:11:21.300Z,3.77
2023-05-05T18:13:48.676Z,8.33
2023-05-05T18:16:16.005Z,4.77
2023-05-05T18:18:43.418Z,3.60
2023-05-05T18:21:12.376Z,3.40
2023-05-05T18:23:40.425Z,3.13
2023-05-05T18:26:08.791Z,3.43
2023-05-05T18:28:37.162Z,3.13
2023-05-05T18:31:04.611Z,3.20
2023-05-05T18:33:32.016Z,2.90
2023-05-05T18:35:59.386Z,3.00
2023-05-05T18:38:26.842Z,3.27
2023-05-05T18:40:54.229Z,3.03
2023-05-05T18:43:21.534Z,3.20
2023-05-05T18:45:48.924Z,2.97
2023-05-05T18:48:16.550Z,2.73
2023-05-05T18:50:43.894Z,3.33
2023-05-05T18:53:13.552Z,3.13
2023-05-05T18:55:43.118Z,2.90
2023-05-05T18:58:10.517Z,3.20
2023-05-05T19:00:38.050Z,3.37
2023-05-05T19:03:06.448Z,2.97
2023-05-05T19:05:33.785Z,2.97
2023-05-05T19:08:01.074Z,2.83
2023-05-05T19:10:28.636Z,3.00
2023-05-05T19:12:56.298Z,2.97
2023-05-05T19:15:23.862Z,2.87
2023-05-05T19:17:51.288Z,2.87
2023-05-05T19:20:18.916Z,2.93
2023-05-05T19:22:46.307Z,3.20
2023-05-05T19:25:14.530Z,2.80
2023-05-05T19:27:42.043Z,3.37
2023-05-05T19:30:10.096Z,2.70
2023-05-05T19:32:37.541Z,2.83
2023-05-05T19:35:06.785Z,2.77
2023-05-05T19:37:34.157Z,2.80
2023-05-05T19:40:01.760Z,3.10
2023-05-05T19:42:29.096Z,2.73
2023-05-05T19:44:56.401Z,2.73
2023-05-05T19:47:23.679Z,2.73
2023-05-05T19:49:51.270Z,2.97
2023-05-05T19:52:18.537Z,3.10
2023-05-05T19:54:46.070Z,2.87
2023-05-05T19:57:13.448Z,2.80
2023-05-05T19:59:41.793Z,3.33
2023-05-05T20:02:10.119Z,3.10
2023-05-05T20:04:37.718Z,2.57
2023-05-05T20:07:05.066Z,2.83
2023-05-05T20:09:32.365Z,3.23
2023-05-05T20:11:59.702Z,3.00
2023-05-05T20:14:27.019Z,2.57
2023-05-05T20:16:54.531Z,2.90
2023-05-05T20:19:22.051Z,2.30
2023-05-05T20:21:49.356Z,2.50
2023-05-05T20:24:17.506Z,2.50
2023-05-05T20:26:44.957Z,2.70
2023-05-05T20:29:12.822Z,3.23
2023-05-05T20:31:40.253Z,2.73
2023-05-05T20:34:07.622Z,2.43
2023-05-05T20:36:35.130Z,2.93
2023-05-05T20:39:02.427Z,2.77
2023-05-05T20:41:29.686Z,3.00
2023-05-05T20:43:57.187Z,2.83
2023-05-05T20:46:24.559Z,2.70
2023-05-05T20:48:51.923Z,2.80
2023-05-05T20:51:19.230Z,2.27
2023-05-05T20:53:46.678Z,2.77
2023-05-05T20:56:14.007Z,3.17
2023-05-05T20:58:41.580Z,2.90
2023-05-05T21:01:09.144Z,2.87
2023-05-05T21:03:37.349Z,2.90
2023-05-05T21:06:05.069Z,2.67
2023-05-05T21:08:32.384Z,2.90
2023-05-05T21:10:59.764Z,2.53
2023-05-05T21:13:27.130Z,2.67
2023-05-05T21:15:54.468Z,2.40
2023-05-05T21:18:21.764Z,2.37
2023-05-05T21:20:49.269Z,3.00
2023-05-05T21:23:16.564Z,2.57
2023-05-05T21:25:43.849Z,2.77
2023-05-05T21:28:11.417Z,2.63
2023-05-05T21:30:38.926Z,2.73
2023-05-05T21:33:06.403Z,2.50
2023-05-05T21:35:33.743Z,2.80
2023-05-05T21:38:01.348Z,2.50
2023-05-05T21:40:28.707Z,2.40
2023-05-05T21:42:56.100Z,2.53
2023-05-05T21:45:23.575Z,2.60
2023-05-05T21:47:51.102Z,2.80
2023-05-05T21:50:18.510Z,2.43
2023-05-05T21:52:46.050Z,2.43
2023-05-05T21:55:13.439Z,2.43
2023-05-05T21:57:41.832Z,2.63
2023-05-05T22:00:09.848Z,3.17
2023-05-05T22:02:40.755Z,2.57
2023-05-05T22:05:09.440Z,2.60
2023-05-05T22:07:41.351Z,2.50
2023-05-05T22:10:11.834Z,2.23
2023-05-05T22:12:39.520Z,2.40
2023-05-05T22:15:07.800Z,2.80
2023-05-05T22:17:36.163Z,2.53
2023-05-05T22:20:05.277Z,2.17
2023-05-05T22:22:32.634Z,2.30
2023-05-05T22:25:00.028Z,2.43
2023-05-05T22:27:27.346Z,2.23
2023-05-05T22:29:54.817Z,2.40
2023-05-05T22:32:22.187Z,2.67
2023-05-05T22:34:49.602Z,2.60
2023-05-05T22:37:17.123Z,2.17
2023-05-05T22:39:44.644Z,2.37
2023-05-05T22:42:12.048Z,2.50
2023-05-05T22:44:39.487Z,2.80
2023-05-05T22:47:09.657Z,2.60
2023-05-05T22:49:37.085Z,2.50
2023-05-05T22:52:04.609Z,2.70
2023-05-05T22:54:32.120Z,2.27
2023-05-05T22:56:59.627Z,2.70
2023-05-05T22:59:27.047Z,2.80
2023-05-05T23:01:54.661Z,2.70
2023-05-05T23:04:22.144Z,2.47
2023-05-05T23:06:49.574Z,2.47
2023-05-05T23:09:17.136Z,2.40
2023-05-05T23:11:44.490Z,2.70
2023-05-05T23:14:12.014Z,2.70
2023-05-05T23:16:39.442Z,2.63
2023-05-05T23:19:06.931Z,2.87
2023-05-05T23:21:41.854Z,3.00
2023-05-05T23:24:16.939Z,2.87
2023-05-05T23:26:44.286Z,2.90
2023-05-05T23:29:11.647Z,2.30
2023-05-05T23:31:39.062Z,2.77
2023-05-05T23:34:06.535Z,2.47
2023-05-05T23:36:34.033Z,2.30
2023-05-05T23:39:01.395Z,2.40
2023-05-05T23:41:28.774Z,2.60
2023-05-05T23:43:56.935Z,2.80
2023-05-05T23:46:24.637Z,2.43
2023-05-05T23:48:52.045Z,2.93
2023-05-05T23:51:19.405Z,3.17
2023-05-05T23:53:46.835Z,2.77
2023-05-05T23:56:14.383Z,2.60
2023-05-05T23:58:41.667Z,2.60
